Time;durP1;ratioP1;P1;durP2;ratioP2;P2;SDS_P1;SDS_P2;PMS_P1;PMS_P2;Temp;Humidity;BMP_temperature;BMP_pressure;BME280_temperature;BME280_humidity;BME280_pressure;Samples;Min_cycle;Max_cycle;Signal;HPM_P1;HPM_P2
2020/12/10 00:00:16;;;;;;;55.72;27.50;;;3.80;99.90;;;;;;5033686;28;20080;-76
2020/12/10 00:02:42;;;;;;;58.42;28.95;;;3.80;99.90;;;;;;5030258;28;20044;-76
2020/12/10 00:05:10;;;;;;;51.67;27.55;;;3.80;99.90;;;;;;5029093;28;20044;-76
2020/12/10 00:07:38;;;;;;;55.70;28.75;;;3.80;99.90;;;;;;5010701;28;20477;-76
2020/12/10 00:10:08;;;;;;;59.13;29.00;;;3.80;99.90;;;;;;5028060;28;20037;-76
2020/12/10 00:12:34;;;;;;;59.83;30.42;;;3.80;99.90;;;;;;5028417;28;20064;-76
2020/12/10 00:14:59;;;;;;;59.13;28.83;;;3.80;99.90;;;;;;5029143;28;20382;-76
2020/12/10 00:17:31;;;;;;;56.75;27.95;;;3.80;99.90;;;;;;5033078;28;20029;-76
2020/12/10 00:20:01;;;;;;;58.63;29.60;;;3.90;99.90;;;;;;5031488;28;20041;-76
2020/12/10 00:22:27;;;;;;;63.53;29.60;;;3.90;99.90;;;;;;5021005;28;20037;-76
2020/12/10 00:24:52;;;;;;;56.95;29.17;;;3.90;99.90;;;;;;5016910;28;20510;-76
2020/12/10 00:27:23;;;;;;;45.42;24.13;;;3.80;99.90;;;;;;5015805;28;20026;-76
2020/12/10 00:29:52;;;;;;;41.08;23.08;;;3.80;99.90;;;;;;5012879;28;20068;-76
2020/12/10 00:32:17;;;;;;;35.80;21.73;;;3.80;99.90;;;;;;5016931;28;20143;-77
2020/12/10 00:34:44;;;;;;;40.55;23.30;;;3.80;99.90;;;;;;5014773;28;20455;-76
2020/12/10 00:37:10;;;;;;;37.05;20.60;;;3.80;99.90;;;;;;5016387;28;20113;-76
2020/12/10 00:39:36;;;;;;;38.30;22.08;;;3.80;99.90;;;;;;5033196;28;20100;-76
2020/12/10 00:42:05;;;;;;;37.92;21.27;;;3.80;99.90;;;;;;5020751;28;20666;-76
2020/12/10 00:44:33;;;;;;;38.67;22.02;;;3.90;99.90;;;;;;5016657;28;20041;-76
2020/12/10 00:47:01;;;;;;;34.95;20.33;;;3.90;99.90;;;;;;5022542;28;20489;-76
2020/12/10 00:49:29;;;;;;;39.55;22.80;;;3.80;99.90;;;;;;5014738;28;20068;-76
2020/12/10 00:51:55;;;;;;;37.15;20.98;;;3.80;99.90;;;;;;5003667;28;20429;-76
2020/12/10 00:54:21;;;;;;;37.45;22.10;;;3.80;99.90;;;;;;5016267;28;20026;-76
2020/12/10 00:56:49;;;;;;;39.88;20.90;;;3.80;99.90;;;;;;5016214;28;20105;-76
2020/12/10 00:59:15;;;;;;;39.40;21.52;;;3.80;99.90;;;;;;5014510;28;20144;-76
2020/12/10 01:01:42;;;;;;;39.50;22.52;;;3.80;99.90;;;;;;5016461;28;20730;-76
2020/12/10 01:04:10;;;;;;;34.38;20.17;;;3.80;99.90;;;;;;5015229;28;20030;-76
2020/12/10 01:06:36;;;;;;;38.63;22.33;;;3.80;99.90;;;;;;5015919;28;20336;-76
2020/12/10 01:09:04;;;;;;;38.97;22.13;;;3.80;99.90;;;;;;5005613;28;20032;-76
2020/12/10 01:11:30;;;;;;;42.50;22.65;;;3.80;99.90;;;;;;5016066;28;20609;-76
2020/12/10 01:13:56;;;;;;;37.67;22.40;;;3.70;99.90;;;;;;5015647;28;20040;-76
2020/12/10 01:16:22;;;;;;;33.97;20.20;;;3.80;99.90;;;;;;5014918;28;20052;-76
2020/12/10 01:18:51;;;;;;;34.70;21.00;;;3.80;99.90;;;;;;5015516;28;20116;-76
2020/12/10 01:21:30;;;;;;;37.88;21.15;;;3.80;99.90;;;;;;5021660;28;20040;-76
2020/12/10 01:23:56;;;;;;;40.05;23.67;;;3.80;99.90;;;;;;5015991;28;20033;-76
2020/12/10 01:26:28;;;;;;;40.03;23.65;;;3.70;99.90;;;;;;5016337;28;20033;-76
2020/12/10 01:28:56;;;;;;;36.97;22.45;;;3.70;99.90;;;;;;5007541;28;20066;-76
2020/12/10 01:31:22;;;;;;;36.92;22.05;;;3.70;99.90;;;;;;5015071;28;20238;-76
2020/12/10 01:33:47;;;;;;;32.75;20.60;;;3.70;99.90;;;;;;4997620;28;20052;-76
2020/12/10 01:36:36;;;;;;;33.40;20.27;;;3.70;99.90;;;;;;5016783;28;20030;-76
2020/12/10 01:39:01;;;;;;;34.63;20.42;;;3.70;99.90;;;;;;5015217;28;20448;-76
2020/12/10 01:41:30;;;;;;;37.58;22.13;;;3.70;99.90;;;;;;5015510;28;20639;-76
2020/12/10 01:44:03;;;;;;;36.63;22.10;;;3.60;99.90;;;;;;5016245;28;20092;-76
2020/12/10 01:46:29;;;;;;;32.50;20.60;;;3.70;99.90;;;;;;5025349;28;20025;-76
2020/12/10 01:48:57;;;;;;;34.88;21.00;;;3.60;99.90;;;;;;5029546;28;20037;-76
2020/12/10 01:51:25;;;;;;;36.05;20.80;;;3.60;99.90;;;;;;5016177;28;20105;-76
2020/12/10 01:53:53;;;;;;;33.25;20.30;;;3.60;99.90;;;;;;5005357;28;20029;-76
2020/12/10 01:56:19;;;;;;;35.00;21.42;;;3.60;99.90;;;;;;4998327;28;20822;-76
2020/12/10 01:58:45;;;;;;;36.83;22.08;;;3.50;99.90;;;;;;5030734;28;20076;-76
2020/12/10 02:01:13;;;;;;;33.95;19.75;;;3.60;99.90;;;;;;5012007;28;20033;-76
2020/12/10 02:03:41;;;;;;;32.17;20.42;;;3.50;99.90;;;;;;5014738;28;20041;-76
2020/12/10 02:06:07;;;;;;;32.58;19.63;;;3.50;99.90;;;;;;5026678;28;20562;-76
2020/12/10 02:08:33;;;;;;;31.13;19.88;;;3.50;99.90;;;;;;5011898;28;20060;-76
2020/12/10 02:10:58;;;;;;;34.80;21.00;;;3.40;99.90;;;;;;5029840;28;20102;-76
2020/12/10 02:13:29;;;;;;;31.73;19.20;;;3.40;99.90;;;;;;5030018;28;20112;-76
2020/12/10 02:16:03;;;;;;;34.53;20.98;;;3.40;99.90;;;;;;5027084;28;20424;-76
2020/12/10 02:18:34;;;;;;;32.90;19.92;;;3.40;99.90;;;;;;5022458;28;20120;-76
2020/12/10 02:20:59;;;;;;;35.08;21.27;;;3.40;99.90;;;;;;5026045;28;20048;-76
2020/12/10 02:23:27;;;;;;;33.17;21.30;;;3.40;99.90;;;;;;5013964;28;20034;-77
2020/12/10 02:25:55;;;;;;;32.58;19.67;;;3.30;99.90;;;;;;5022507;28;20366;-76
2020/12/10 02:28:23;;;;;;;30.17;19.13;;;3.30;99.90;;;;;;5016656;28;20049;-76
2020/12/10 02:30:51;;;;;;;34.85;20.70;;;3.30;99.90;;;;;;5015426;28;20029;-76
2020/12/10 02:33:19;;;;;;;33.10;19.80;;;3.30;99.90;;;;;;5025138;28;20049;-76
2020/12/10 02:35:46;;;;;;;34.05;20.45;;;3.30;99.90;;;;;;5015421;28;20026;-77
2020/12/10 02:38:14;;;;;;;33.65;19.88;;;3.20;99.90;;;;;;5027900;28;20032;-77
2020/12/10 02:40:45;;;;;;;29.63;18.08;;;3.20;99.90;;;;;;5025605;28;20043;-76
2020/12/10 02:43:14;;;;;;;28.98;18.25;;;3.20;99.90;;;;;;5015584;28;20103;-76
2020/12/10 02:45:40;;;;;;;32.80;19.35;;;3.20;99.90;;;;;;5015651;28;20092;-77
2020/12/10 02:48:08;;;;;;;33.13;19.55;;;3.20;99.90;;;;;;5013812;28;20072;-76
2020/12/10 02:50:37;;;;;;;32.40;20.45;;;3.20;99.90;;;;;;5012816;28;20040;-76
2020/12/10 02:53:03;;;;;;;36.08;20.10;;;3.20;99.90;;;;;;5013004;28;20371;-76
2020/12/10 02:55:31;;;;;;;33.17;19.75;;;3.20;99.90;;;;;;5015566;28;20025;-76
2020/12/10 02:57:59;;;;;;;31.45;19.05;;;3.20;99.90;;;;;;5014858;28;20041;-76
2020/12/10 03:00:24;;;;;;;29.27;18.65;;;3.10;99.90;;;;;;5015940;28;20129;-76
2020/12/10 03:02:50;;;;;;;33.25;19.83;;;3.10;99.90;;;;;;5012450;28;20045;-76
2020/12/10 03:05:18;;;;;;;32.63;19.38;;;3.10;99.90;;;;;;5014762;28;20030;-76
2020/12/10 03:07:46;;;;;;;34.92;21.13;;;3.00;99.90;;;;;;5011787;28;20549;-76
2020/12/10 03:10:16;;;;;;;35.47;20.70;;;2.90;99.90;;;;;;5019878;28;20519;-76
2020/12/10 03:12:42;;;;;;;33.55;20.30;;;2.90;99.90;;;;;;5027860;28;20513;-76
2020/12/10 03:15:13;;;;;;;33.90;19.70;;;2.90;99.90;;;;;;5023484;28;20034;-76
2020/12/10 03:17:41;;;;;;;30.17;18.65;;;2.90;99.90;;;;;;5017948;28;20486;-76
2020/12/10 03:20:11;;;;;;;32.97;19.95;;;2.80;99.90;;;;;;5022939;28;20087;-76
2020/12/10 03:22:37;;;;;;;29.98;17.88;;;2.80;99.90;;;;;;5029686;28;20036;-76
2020/12/10 03:25:04;;;;;;;28.85;18.38;;;2.80;99.90;;;;;;5032222;28;20099;-76
2020/12/10 03:27:32;;;;;;;27.85;17.20;;;2.80;99.90;;;;;;5031827;28;20112;-76
2020/12/10 03:30:01;;;;;;;29.52;18.30;;;2.70;99.90;;;;;;5027168;28;20040;-76
2020/12/10 03:32:31;;;;;;;29.17;17.77;;;2.80;99.90;;;;;;5030508;28;20076;-76
2020/12/10 03:34:57;;;;;;;27.17;17.20;;;2.70;99.90;;;;;;5020750;28;20026;-76
2020/12/10 03:37:25;;;;;;;26.75;16.75;;;2.60;99.90;;;;;;5016742;28;20025;-76
2020/12/10 03:39:53;;;;;;;28.27;16.98;;;2.60;99.90;;;;;;5020822;28;20112;-76
2020/12/10 03:42:18;;;;;;;28.13;16.30;;;2.60;99.90;;;;;;5034096;28;20032;-76
2020/12/10 03:44:44;;;;;;;27.35;16.48;;;2.60;99.90;;;;;;5022844;28;20037;-76
2020/12/10 03:47:12;;;;;;;27.77;17.15;;;2.60;99.90;;;;;;5018513;28;20067;-76
2020/12/10 03:49:40;;;;;;;26.27;16.27;;;2.60;99.90;;;;;;5025949;28;20033;-76
2020/12/10 03:52:13;;;;;;;24.10;15.60;;;2.60;99.90;;;;;;5023887;28;20029;-77
2020/12/10 03:54:39;;;;;;;28.00;16.48;;;2.60;99.90;;;;;;5018347;28;20033;-76
2020/12/10 03:57:07;;;;;;;28.17;16.55;;;2.60;99.90;;;;;;5017484;28;20057;-76
2020/12/10 03:59:32;;;;;;;25.55;16.23;;;2.50;99.90;;;;;;5034177;28;20033;-76
2020/12/10 04:02:03;;;;;;;26.02;15.25;;;2.50;99.90;;;;;;5030763;28;20040;-76
2020/12/10 04:04:28;;;;;;;22.77;14.75;;;2.50;99.90;;;;;;5028276;28;20458;-76
2020/12/10 04:06:54;;;;;;;24.00;14.70;;;2.50;99.90;;;;;;5020665;28;20037;-76
2020/12/10 04:09:20;;;;;;;24.42;15.43;;;2.50;99.90;;;;;;5014953;28;20025;-76
2020/12/10 04:11:46;;;;;;;25.92;16.60;;;2.50;99.90;;;;;;5016735;28;20044;-76
2020/12/10 04:14:14;;;;;;;22.48;14.35;;;2.50;99.90;;;;;;5024765;28;20037;-76
2020/12/10 04:16:40;;;;;;;23.38;14.93;;;2.40;99.90;;;;;;5028736;28;20069;-76
2020/12/10 04:19:05;;;;;;;23.63;14.88;;;2.40;99.90;;;;;;5016285;28;20080;-76
2020/12/10 04:21:31;;;;;;;22.02;13.45;;;2.40;99.90;;;;;;5016828;28;20037;-76
2020/12/10 04:23:56;;;;;;;24.20;14.60;;;2.40;99.90;;;;;;5020802;28;20071;-76
2020/12/10 04:26:22;;;;;;;21.23;13.60;;;2.30;99.90;;;;;;5016743;28;20054;-76
2020/12/10 04:28:50;;;;;;;24.02;14.30;;;2.40;99.90;;;;;;5016347;28;20040;-76
2020/12/10 04:31:18;;;;;;;19.55;12.25;;;2.30;99.90;;;;;;5021092;28;20037;-76
2020/12/10 04:33:46;;;;;;;24.17;13.45;;;2.30;99.90;;;;;;5018641;28;20046;-76
2020/12/10 04:36:14;;;;;;;21.55;13.32;;;2.30;99.90;;;;;;5025639;28;20036;-76
2020/12/10 04:38:42;;;;;;;18.30;12.68;;;2.20;99.90;;;;;;5032163;28;20064;-76
2020/12/10 04:41:09;;;;;;;22.98;13.70;;;2.20;99.90;;;;;;5018407;28;20044;-76
2020/12/10 04:43:39;;;;;;;20.60;13.10;;;2.20;99.90;;;;;;5016523;28;20033;-76
2020/12/10 04:46:07;;;;;;;22.00;13.43;;;2.10;99.90;;;;;;5015919;28;20589;-76
2020/12/10 04:48:36;;;;;;;21.05;13.80;;;2.10;99.90;;;;;;5004374;28;20065;-75
2020/12/10 04:51:07;;;;;;;21.17;13.02;;;2.20;99.90;;;;;;5030704;28;20034;-76
2020/12/10 04:53:33;;;;;;;19.13;12.00;;;2.10;99.90;;;;;;5014993;28;20350;-75
2020/12/10 04:56:08;;;;;;;19.80;12.63;;;2.20;99.90;;;;;;5015975;28;20030;-76
2020/12/10 04:58:36;;;;;;;19.40;12.55;;;2.20;99.90;;;;;;5016593;28;20032;-76
2020/12/10 05:01:04;;;;;;;20.13;13.00;;;2.20;99.90;;;;;;5022819;28;20030;-76
2020/12/10 05:03:30;;;;;;;19.85;12.48;;;2.30;99.90;;;;;;5021310;28;20028;-76
2020/12/10 05:06:13;;;;;;;19.38;12.55;;;2.20;99.90;;;;;;5029274;28;20182;-75
2020/12/10 05:08:41;;;;;;;22.10;13.15;;;2.30;99.90;;;;;;5026653;28;20040;-76
2020/12/10 05:11:10;;;;;;;21.45;13.57;;;2.30;99.90;;;;;;5015409;28;20056;-76
2020/12/10 05:13:37;;;;;;;18.98;12.25;;;2.30;99.90;;;;;;5020507;28;20045;-76
2020/12/10 05:16:03;;;;;;;21.75;13.30;;;2.30;99.90;;;;;;5011338;28;20405;-76
2020/12/10 05:18:31;;;;;;;23.13;14.07;;;2.30;99.90;;;;;;5014578;28;20030;-76
2020/12/10 05:20:57;;;;;;;21.95;13.57;;;2.30;99.90;;;;;;5035703;28;20033;-76
2020/12/10 05:23:39;;;;;;;22.92;13.95;;;2.30;99.90;;;;;;5026569;28;20129;-76
2020/12/10 05:26:09;;;;;;;16.13;10.20;;;2.30;99.90;;;;;;5006869;28;20037;-76
2020/12/10 05:28:47;;;;;;;22.08;12.98;;;2.20;99.90;;;;;;5015009;28;20022;-75
2020/12/10 05:31:15;;;;;;;21.45;14.35;;;2.20;99.90;;;;;;5012372;28;20029;-76
2020/12/10 05:33:57;;;;;;;24.23;15.10;;;2.20;99.90;;;;;;5015207;28;20466;-76
2020/12/10 05:36:23;;;;;;;19.83;13.15;;;2.20;99.90;;;;;;5014901;28;20033;-76
2020/12/10 05:38:55;;;;;;;21.10;13.82;;;2.10;99.90;;;;;;5005999;28;20079;-76
2020/12/10 05:41:22;;;;;;;21.08;12.98;;;2.10;99.90;;;;;;5026590;28;20044;-76
2020/12/10 05:43:50;;;;;;;21.90;13.52;;;2.10;99.90;;;;;;5032214;28;20029;-76
2020/12/10 05:46:23;;;;;;;19.48;12.80;;;2.10;99.90;;;;;;5014598;28;20033;-76
2020/12/10 05:48:49;;;;;;;18.08;12.05;;;2.00;99.90;;;;;;5025818;28;20040;-76
2020/12/10 05:51:19;;;;;;;18.38;11.68;;;2.00;99.90;;;;;;5030801;28;20040;-76
2020/12/10 05:53:50;;;;;;;19.00;12.32;;;2.00;99.90;;;;;;5014855;28;20091;-76
2020/12/10 05:56:16;;;;;;;21.10;12.85;;;1.90;99.90;;;;;;5012310;28;20029;-76
2020/12/10 05:58:52;;;;;;;19.08;12.40;;;1.90;99.90;;;;;;5015816;28;20036;-76
2020/12/10 06:01:26;;;;;;;21.08;13.27;;;1.90;99.90;;;;;;5014148;28;20126;-76
2020/12/10 06:03:54;;;;;;;21.23;12.98;;;1.90;99.90;;;;;;5013377;28;20052;-76
2020/12/10 06:06:25;;;;;;;19.48;12.52;;;1.90;99.90;;;;;;5022479;28;20175;-76
2020/12/10 06:08:57;;;;;;;21.42;13.13;;;1.90;99.90;;;;;;5044756;28;20037;-76
2020/12/10 06:11:27;;;;;;;20.05;12.98;;;1.90;99.90;;;;;;5017230;28;20114;-76
2020/12/10 06:14:04;;;;;;;18.90;12.05;;;1.90;99.90;;;;;;5024001;28;20037;-76
2020/12/10 06:16:30;;;;;;;19.25;12.48;;;1.90;99.90;;;;;;5015256;28;20025;-76
2020/12/10 06:19:05;;;;;;;18.50;12.38;;;1.90;99.90;;;;;;5013828;28;20022;-76
2020/12/10 06:21:43;;;;;;;18.77;12.35;;;1.90;99.90;;;;;;5014849;28;20363;-76
2020/12/10 06:24:24;;;;;;;18.48;11.55;;;2.00;99.90;;;;;;5014634;28;20119;-76
2020/12/10 06:26:53;;;;;;;20.33;13.52;;;2.00;99.90;;;;;;5015504;28;20042;-76
2020/12/10 06:29:22;;;;;;;17.95;11.70;;;2.00;99.90;;;;;;5029840;28;20032;-76
2020/12/10 06:32:05;;;;;;;22.63;13.55;;;2.10;99.90;;;;;;5023243;28;20036;-76
2020/12/10 06:34:42;;;;;;;19.90;13.00;;;2.00;99.90;;;;;;5013770;28;20041;-76
2020/12/10 06:37:20;;;;;;;20.10;12.45;;;2.00;99.90;;;;;;5013026;28;20479;-76
2020/12/10 06:39:52;;;;;;;20.35;12.93;;;2.00;99.90;;;;;;5025526;28;20026;-76
2020/12/10 06:42:18;;;;;;;19.15;12.50;;;2.00;99.90;;;;;;5010112;28;20030;-76
2020/12/10 06:44:46;;;;;;;18.88;12.88;;;2.00;99.90;;;;;;5014330;28;20048;-76
2020/12/10 06:47:12;;;;;;;20.02;12.05;;;2.00;99.90;;;;;;5018314;28;20095;-76
2020/12/10 06:49:40;;;;;;;18.42;11.68;;;2.00;99.90;;;;;;5030156;28;20034;-76
2020/12/10 06:52:10;;;;;;;20.63;12.65;;;2.00;99.90;;;;;;5025028;28;20053;-76
2020/12/10 06:55:10;;;;;;;19.35;12.73;;;2.00;99.90;;;;;;5026986;28;20030;-77
2020/12/10 06:57:58;;;;;;;18.63;11.85;;;2.00;99.90;;;;;;5024029;28;20017;-77
2020/12/10 07:00:49;;;;;;;19.05;12.52;;;1.90;99.90;;;;;;5025365;28;20021;-76
2020/12/10 07:03:25;;;;;;;18.65;12.13;;;1.90;99.90;;;;;;5028803;28;20037;-77
2020/12/10 07:05:51;;;;;;;18.63;12.55;;;1.90;99.90;;;;;;5013767;28;20033;-77
2020/12/10 07:08:18;;;;;;;19.20;12.48;;;1.90;99.90;;;;;;5022754;28;20030;-78
2020/12/10 07:10:49;;;;;;;18.75;12.55;;;2.00;99.90;;;;;;5013607;28;20078;-77
2020/12/10 07:13:17;;;;;;;19.33;12.30;;;2.00;99.90;;;;;;5028608;28;20021;-78
2020/12/10 07:15:51;;;;;;;17.77;11.65;;;2.00;99.90;;;;;;5034934;28;20025;-77
2020/12/10 07:18:19;;;;;;;19.40;12.23;;;2.10;99.90;;;;;;5024632;28;20036;-74
2020/12/10 07:20:47;;;;;;;20.00;13.43;;;2.00;99.90;;;;;;5028940;28;20052;-77
2020/12/10 07:23:17;;;;;;;21.88;13.20;;;2.00;99.90;;;;;;5022221;28;20171;-77
2020/12/10 07:25:42;;;;;;;21.55;13.70;;;2.00;99.90;;;;;;5016020;28;20535;-77
2020/12/10 07:28:14;;;;;;;17.90;12.18;;;2.00;99.90;;;;;;5025848;28;20112;-77
2020/12/10 07:30:40;;;;;;;19.03;11.50;;;2.00;99.90;;;;;;5025468;28;20082;-77
2020/12/10 07:33:07;;;;;;;18.45;12.52;;;2.00;99.90;;;;;;5011586;28;20041;-77
2020/12/10 07:35:35;;;;;;;18.13;11.85;;;2.10;99.90;;;;;;5025528;28;20054;-78
2020/12/10 07:38:13;;;;;;;20.88;13.35;;;2.00;99.90;;;;;;5026041;28;20025;-77
2020/12/10 07:40:44;;;;;;;21.05;13.57;;;2.00;99.90;;;;;;5027732;28;20462;-77
2020/12/10 07:43:09;;;;;;;18.98;12.35;;;1.90;99.90;;;;;;5027960;28;20343;-77
2020/12/10 07:45:36;;;;;;;21.38;13.40;;;1.90;99.90;;;;;;5027396;28;20033;-77
2020/12/10 07:48:05;;;;;;;19.55;13.00;;;2.00;99.90;;;;;;5028779;28;20033;-76
2020/12/10 07:50:35;;;;;;;20.10;13.02;;;2.00;99.90;;;;;;5011831;28;20502;-76
2020/12/10 07:53:04;;;;;;;20.13;12.55;;;2.00;99.90;;;;;;5028055;28;20501;-76
2020/12/10 07:55:33;;;;;;;19.70;13.35;;;2.00;99.90;;;;;;5032654;28;20021;-76
2020/12/10 07:58:10;;;;;;;20.20;13.05;;;1.90;99.90;;;;;;5044099;28;20029;-77
2020/12/10 08:00:36;;;;;;;21.77;13.63;;;1.90;99.90;;;;;;5029997;28;20025;-76
2020/12/10 08:03:46;;;;;;;19.52;12.50;;;1.90;99.90;;;;;;5028008;28;20033;-76
2020/12/10 08:06:16;;;;;;;20.80;13.43;;;2.00;99.90;;;;;;5033787;28;20076;-76
2020/12/10 08:09:01;;;;;;;20.65;12.98;;;1.90;99.90;;;;;;5012277;28;20029;-77
2020/12/10 08:11:29;;;;;;;23.23;15.57;;;1.90;99.90;;;;;;5047197;28;20053;-76
2020/12/10 08:14:00;;;;;;;19.88;12.75;;;1.90;99.90;;;;;;5037503;28;20052;-77
2020/12/10 08:16:42;;;;;;;21.90;14.37;;;1.90;99.90;;;;;;5032304;28;20021;-77
2020/12/10 08:19:19;;;;;;;22.38;14.70;;;1.90;99.90;;;;;;5034993;28;20026;-77
2020/12/10 08:21:45;;;;;;;20.30;13.75;;;1.90;99.90;;;;;;5032095;28;20102;-77
2020/12/10 08:24:12;;;;;;;23.10;14.77;;;1.80;99.90;;;;;;5029293;28;20098;-77
2020/12/10 08:26:41;;;;;;;21.15;14.07;;;1.80;99.90;;;;;;5030181;28;20550;-77
2020/12/10 08:29:07;;;;;;;23.38;15.38;;;1.80;99.90;;;;;;5027109;28;20137;-77
2020/12/10 08:31:33;;;;;;;21.65;13.65;;;1.80;99.90;;;;;;5025192;28;20029;-76
2020/12/10 08:33:59;;;;;;;19.85;12.85;;;1.80;99.90;;;;;;5035074;28;20033;-76
2020/12/10 08:36:30;;;;;;;20.13;13.07;;;1.80;99.90;;;;;;5030808;28;20138;-76
2020/12/10 08:38:56;;;;;;;22.60;14.70;;;1.80;99.90;;;;;;5031441;28;20021;-76
2020/12/10 08:41:32;;;;;;;21.98;14.52;;;1.80;99.90;;;;;;5031491;28;20037;-77
2020/12/10 08:44:00;;;;;;;22.48;13.98;;;1.80;99.90;;;;;;5032104;28;20056;-77
2020/12/10 08:46:31;;;;;;;21.02;13.57;;;1.80;99.90;;;;;;5044610;28;20021;-76
2020/12/10 08:49:15;;;;;;;21.25;13.23;;;1.90;99.90;;;;;;5031017;28;20567;-77
2020/12/10 08:51:42;;;;;;;22.73;14.75;;;1.90;99.90;;;;;;5028957;28;20033;-77
2020/12/10 08:54:08;;;;;;;21.27;13.65;;;1.90;99.90;;;;;;5030701;28;20035;-77
2020/12/10 08:56:38;;;;;;;21.65;13.90;;;2.00;99.90;;;;;;5031217;28;20462;-75
2020/12/10 08:59:06;;;;;;;22.52;14.63;;;2.00;99.90;;;;;;5020541;28;20026;-77
2020/12/10 09:01:32;;;;;;;21.45;13.57;;;2.00;99.90;;;;;;5014958;28;20029;-77
2020/12/10 09:03:58;;;;;;;22.45;14.23;;;2.00;99.90;;;;;;5018626;28;20485;-77
2020/12/10 09:06:33;;;;;;;21.90;14.15;;;2.00;99.90;;;;;;5027783;28;20033;-76
2020/12/10 09:08:59;;;;;;;20.92;13.35;;;2.00;99.90;;;;;;5009210;28;20033;-77
2020/12/10 09:11:28;;;;;;;24.17;14.75;;;2.00;99.90;;;;;;5016322;28;20061;-77
2020/12/10 09:13:53;;;;;;;22.85;14.82;;;2.10;99.90;;;;;;5029425;28;20064;-77
2020/12/10 09:16:19;;;;;;;25.30;15.98;;;2.10;99.90;;;;;;5013689;28;20056;-77
2020/12/10 09:18:45;;;;;;;23.55;14.25;;;2.10;99.90;;;;;;5033122;28;20035;-77
2020/12/10 09:21:11;;;;;;;23.05;14.90;;;2.00;99.90;;;;;;5027053;28;20033;-77
2020/12/10 09:23:43;;;;;;;25.92;15.43;;;2.00;99.90;;;;;;5015886;28;20090;-77
2020/12/10 09:26:10;;;;;;;24.30;15.50;;;2.00;99.90;;;;;;5026210;28;20593;-77
2020/12/10 09:28:41;;;;;;;23.38;15.02;;;2.00;99.90;;;;;;5034260;28;20547;-77
2020/12/10 09:31:07;;;;;;;25.42;16.17;;;2.00;99.90;;;;;;5029307;28;20234;-77
2020/12/10 09:33:33;;;;;;;26.52;16.70;;;2.10;99.90;;;;;;5020043;28;20456;-77
2020/12/10 09:35:59;;;;;;;25.40;16.13;;;2.00;99.90;;;;;;5021739;28;20045;-77
2020/12/10 09:38:28;;;;;;;28.00;17.13;;;2.10;99.90;;;;;;5024516;28;20064;-78
2020/12/10 09:40:53;;;;;;;24.10;15.93;;;2.10;99.90;;;;;;5026534;28;20025;-77
2020/12/10 09:43:19;;;;;;;24.00;15.25;;;2.00;99.90;;;;;;5029085;28;20037;-78
2020/12/10 09:45:54;;;;;;;29.88;17.95;;;2.10;99.90;;;;;;5025848;28;20125;-77
2020/12/10 09:48:22;;;;;;;26.90;16.35;;;2.10;99.90;;;;;;5028444;28;20113;-77
2020/12/10 09:50:53;;;;;;;25.45;16.92;;;2.10;99.90;;;;;;5028286;28;20029;-78
2020/12/10 09:53:26;;;;;;;25.98;15.88;;;2.10;99.90;;;;;;5029126;28;20037;-77
2020/12/10 09:58:18;;;;;;;27.98;18.17;;;2.10;99.90;;;;;;5029671;28;20110;-79
2020/12/10 10:00:49;;;;;;;26.40;16.30;;;2.20;99.90;;;;;;5025533;28;20516;-79
2020/12/10 10:03:16;;;;;;;27.02;15.80;;;2.10;99.90;;;;;;5020886;28;20032;-78
2020/12/10 10:05:42;;;;;;;29.30;17.13;;;2.20;99.90;;;;;;5034206;28;20473;-78
2020/12/10 10:08:10;;;;;;;33.03;19.98;;;2.20;99.90;;;;;;5028571;28;20051;-79
2020/12/10 10:10:38;;;;;;;28.55;18.70;;;2.20;99.90;;;;;;5029003;28;20029;-78
2020/12/10 10:13:04;;;;;;;29.92;18.88;;;2.10;99.90;;;;;;5047468;28;20130;-78
2020/12/10 10:15:33;;;;;;;29.95;18.55;;;2.10;99.90;;;;;;5022212;28;20655;-77
2020/12/10 10:17:59;;;;;;;29.05;18.00;;;2.10;99.90;;;;;;5032694;28;20033;-77
2020/12/10 10:20:27;;;;;;;28.58;17.42;;;2.10;99.90;;;;;;5003502;28;20036;-77
2020/12/10 10:22:52;;;;;;;28.45;17.80;;;2.20;99.90;;;;;;5033515;28;20040;-77
2020/12/10 10:25:21;;;;;;;29.15;17.65;;;2.10;99.90;;;;;;5014201;28;20026;-77
2020/12/10 10:27:46;;;;;;;29.65;18.63;;;2.20;99.90;;;;;;5024932;28;20375;-78
2020/12/10 10:30:14;;;;;;;29.20;19.23;;;2.20;99.90;;;;;;5032006;28;20029;-78
2020/12/10 10:32:40;;;;;;;28.70;18.25;;;2.20;99.90;;;;;;5030435;28;20046;-78
2020/12/10 10:35:08;;;;;;;31.58;19.83;;;2.20;99.90;;;;;;5015833;28;20030;-78
2020/12/10 10:37:36;;;;;;;34.75;21.83;;;2.20;99.90;;;;;;5028275;28;20029;-78
2020/12/10 10:40:02;;;;;;;33.53;19.65;;;2.20;99.90;;;;;;5033485;28;20033;-78
2020/12/10 10:42:28;;;;;;;33.28;20.23;;;2.20;99.90;;;;;;5032456;28;20151;-78
2020/12/10 10:44:55;;;;;;;30.10;19.15;;;2.20;99.90;;;;;;5019615;28;20029;-78
2020/12/10 10:47:23;;;;;;;26.85;17.48;;;2.20;99.90;;;;;;5024721;28;20068;-78
2020/12/10 10:49:49;;;;;;;28.13;18.42;;;2.20;99.90;;;;;;5026949;28;20029;-78
2020/12/10 10:52:15;;;;;;;29.05;17.73;;;2.20;99.90;;;;;;5027975;28;20044;-78
2020/12/10 10:54:43;;;;;;;26.58;16.85;;;2.20;99.90;;;;;;5027541;28;20053;-78
2020/12/10 10:57:11;;;;;;;27.98;17.63;;;2.20;99.90;;;;;;5025457;28;20022;-78
2020/12/10 10:59:39;;;;;;;27.92;17.85;;;2.20;99.90;;;;;;5033542;28;20057;-78
2020/12/10 11:02:10;;;;;;;27.35;17.45;;;2.20;99.90;;;;;;5024876;28;20115;-78
2020/12/10 11:04:35;;;;;;;26.92;16.73;;;2.20;99.90;;;;;;5023600;28;20085;-77
2020/12/10 11:07:01;;;;;;;30.08;19.08;;;2.20;99.90;;;;;;5013811;28;20108;-77
2020/12/10 11:09:27;;;;;;;27.63;18.67;;;2.20;99.90;;;;;;5014216;28;20044;-77
2020/12/10 11:11:59;;;;;;;30.33;19.20;;;2.20;99.90;;;;;;5013877;28;20045;-78
2020/12/10 11:14:30;;;;;;;28.20;17.10;;;2.20;99.90;;;;;;5023350;28;20017;-78
2020/12/10 11:16:57;;;;;;;31.58;19.95;;;2.20;99.90;;;;;;5029231;28;20034;-78
2020/12/10 11:19:23;;;;;;;30.88;19.73;;;2.20;99.90;;;;;;5026825;28;20487;-77
2020/12/10 11:21:52;;;;;;;27.67;17.45;;;2.30;99.90;;;;;;5027618;28;20040;-78
2020/12/10 11:24:20;;;;;;;30.92;19.45;;;2.30;99.90;;;;;;5029132;28;20025;-77
2020/12/10 11:26:55;;;;;;;25.42;16.90;;;2.40;99.90;;;;;;5030978;28;20067;-77
2020/12/10 11:29:23;;;;;;;28.67;18.77;;;2.40;99.90;;;;;;5027305;28;20124;-77
2020/12/10 11:31:51;;;;;;;27.42;18.15;;;2.30;99.90;;;;;;5029342;28;20056;-77
2020/12/10 11:34:17;;;;;;;28.40;18.55;;;2.40;99.90;;;;;;5031922;28;20104;-78
2020/12/10 11:36:47;;;;;;;29.05;19.17;;;2.40;99.90;;;;;;5025568;28;20026;-77
2020/12/10 11:39:13;;;;;;;29.25;18.65;;;2.40;99.90;;;;;;5026165;28;20472;-77
2020/12/10 11:41:39;;;;;;;31.70;21.08;;;2.40;99.90;;;;;;5029919;28;20044;-78
2020/12/10 11:44:05;;;;;;;29.23;18.50;;;2.50;99.90;;;;;;5009294;28;20041;-77
2020/12/10 11:46:33;;;;;;;30.45;18.50;;;2.40;99.90;;;;;;5030113;28;20056;-77
2020/12/10 11:49:04;;;;;;;28.48;18.20;;;2.50;99.90;;;;;;5025290;28;20037;-77
2020/12/10 11:51:32;;;;;;;27.48;17.73;;;2.50;99.90;;;;;;5018823;28;20041;-78
2020/12/10 11:54:01;;;;;;;26.98;17.58;;;2.50;99.90;;;;;;5017920;28;20029;-78
2020/12/10 11:56:29;;;;;;;29.98;19.02;;;2.50;99.90;;;;;;5032920;28;20053;-77
2020/12/10 11:58:55;;;;;;;26.58;17.48;;;2.50;99.90;;;;;;5030199;28;20631;-77
2020/12/10 12:01:23;;;;;;;29.35;17.75;;;2.50;99.90;;;;;;5028928;28;20064;-78
2020/12/10 12:03:52;;;;;;;27.63;17.48;;;2.60;99.90;;;;;;5030835;28;20022;-77
2020/12/10 12:06:23;;;;;;;27.63;17.73;;;2.60;99.90;;;;;;5046017;28;20025;-78
2020/12/10 12:08:50;;;;;;;28.10;17.65;;;2.50;99.90;;;;;;5031143;28;20080;-77
2020/12/10 12:11:18;;;;;;;27.13;16.98;;;2.50;99.90;;;;;;5027490;28;20462;-77
2020/12/10 12:13:43;;;;;;;30.48;18.80;;;2.40;99.90;;;;;;5010919;28;20450;-77
2020/12/10 12:16:09;;;;;;;28.08;18.13;;;2.40;99.90;;;;;;5015595;28;20029;-77
2020/12/10 12:18:35;;;;;;;26.92;17.63;;;2.40;99.90;;;;;;5017408;28;20394;-77
2020/12/10 12:21:00;;;;;;;28.17;18.30;;;2.40;99.90;;;;;;5017467;28;20026;-77
2020/12/10 12:23:26;;;;;;;27.73;17.80;;;2.40;99.90;;;;;;5016908;28;20405;-77
2020/12/10 12:25:52;;;;;;;29.90;18.15;;;2.40;99.90;;;;;;5016948;28;20025;-77
2020/12/10 12:28:20;;;;;;;26.35;17.23;;;2.40;99.90;;;;;;5018052;28;20031;-77
2020/12/10 12:30:48;;;;;;;30.88;18.50;;;2.40;99.90;;;;;;5028490;28;20029;-77
2020/12/10 12:33:16;;;;;;;29.42;18.80;;;2.50;99.90;;;;;;5013109;28;20248;-77
2020/12/10 12:35:42;;;;;;;28.00;18.30;;;2.50;99.90;;;;;;5025773;28;20028;-77
2020/12/10 12:38:10;;;;;;;29.88;19.17;;;2.50;99.90;;;;;;5027258;28;21936;-77
2020/12/10 12:40:36;;;;;;;34.38;21.33;;;2.50;99.90;;;;;;5020188;28;20026;-77
2020/12/10 12:43:04;;;;;;;30.90;19.33;;;2.40;99.90;;;;;;5031515;28;20037;-77
2020/12/10 12:45:36;;;;;;;28.67;18.23;;;2.40;99.90;;;;;;5028669;28;20030;-77